METAR Data
IDs: Format: Raw Decoded Include TAF

Data at: 0013 UTC 26 Oct 2021

PAIL 252253Z 35011KT 10SM BKN060 03/M03 A2913
PAIL 252153Z 36009KT 10SM BKN060 04/M02 A2914
PAIL 252053Z 35007KT 10SM BKN060 02/M02 A2915
PAIL 251953Z 36007KT 10SM BKN065 02/M02 A2915
PAIL 251853Z 32004KT 10SM BKN060 01/M02 A2915
PAIL 251753Z 32004KT 10SM BKN065 00/M01 A2914 RMK NOSPECI
PAIL 251653Z 35005KT 10SM OVC065 00/M02 A2914
PAIL 251553Z 28003KT 10SM OVC065 00/M01 A2915
PAIL 251453Z 31004KT 10SM FEW044 OVC065 01/M01 A2916 RMK NOSPECI
PAIL 251353Z 01005KT 10SM OVC065 01/M01 A2916 RMK NOSPECI
PAIL 250453Z 01004KT 10SM BKN011 01/01 A2932
PAIL 250353Z 01005KT 10SM BKN011 OVC015 02/01 A2934
PAIL 250253Z 02003KT 10SM BKN011 OVC015 02/01 A2936
PAIL 250153Z 00000KT 10SM OVC011 03/01 A2938
PAIL 250053Z 10003KT 10SM OVC011 03/01 A2940
PAIL 242353Z VRB06KT 10SM OVC011 03/01 A2941
PAIL 242253Z 00000KT 10SM BKN011 OVC019 03/01 A2944 RMK NOSPECI
PAIL 242155Z 00000KT 10SM BKN011 OVC019 03/00 A2945 RMK NOSPECI
PAIL 242053Z 00000KT 10SM BKN013 OVC019 03/M00 A2946 RMK NOSPECI
PAIL 241953Z 35005KT 10SM BKN017 OVC023 02/M01 A2946
PAIL 241853Z 01004KT 10SM SCT044 BKN065 02/M01 A2946
PAIL 241753Z 35004KT 10SM OVC039 01/M01 A2947
PAIL 241653Z 33005KT 10SM OVC040 01/M01 A2947
PAIL 241553Z 33004KT 10SM OVC039 01/M01 A2946
PAIL 241453Z 36007KT 10SM OVC040 01/M01 A2944
PAIL 241353Z 35006KT 10SM OVC040 01/M01 A2943